sensor_id;sensor_type;location;lat;lon;timestamp;P1;durP1;ratioP1;P2;durP2;ratioP2
56927;SDS011;60850;52.502;13.426;2023-12-14T00:01:12;18.88;;;8.85;;
56927;SDS011;60850;52.502;13.426;2023-12-14T00:03:39;15.90;;;8.40;;
56927;SDS011;60850;52.502;13.426;2023-12-14T00:06:07;21.23;;;7.85;;
56927;SDS011;60850;52.502;13.426;2023-12-14T00:08:38;18.70;;;8.80;;
56927;SDS011;60850;52.502;13.426;2023-12-14T00:11:06;19.27;;;8.60;;
56927;SDS011;60850;52.502;13.426;2023-12-14T00:13:34;17.92;;;8.00;;
56927;SDS011;60850;52.502;13.426;2023-12-14T00:16:02;20.20;;;8.52;;
56927;SDS011;60850;52.502;13.426;2023-12-14T00:18:30;15.15;;;7.38;;
56927;SDS011;60850;52.502;13.426;2023-12-14T00:20:58;19.67;;;8.18;;
56927;SDS011;60850;52.502;13.426;2023-12-14T00:23:25;18.85;;;8.23;;
56927;SDS011;60850;52.502;13.426;2023-12-14T00:25:59;19.88;;;7.97;;
56927;SDS011;60850;52.502;13.426;2023-12-14T00:28:27;15.43;;;6.63;;
56927;SDS011;60850;52.502;13.426;2023-12-14T00:30:54;20.55;;;8.63;;
56927;SDS011;60850;52.502;13.426;2023-12-14T00:33:22;22.88;;;8.85;;
56927;SDS011;60850;52.502;13.426;2023-12-14T00:35:49;20.05;;;8.15;;
56927;SDS011;60850;52.502;13.426;2023-12-14T00:38:17;18.98;;;8.30;;
56927;SDS011;60850;52.502;13.426;2023-12-14T00:40:44;15.98;;;7.57;;
56927;SDS011;60850;52.502;13.426;2023-12-14T00:43:11;17.92;;;8.10;;
56927;SDS011;60850;52.502;13.426;2023-12-14T00:45:39;22.60;;;8.40;;
56927;SDS011;60850;52.502;13.426;2023-12-14T00:48:07;16.88;;;8.45;;
56927;SDS011;60850;52.502;13.426;2023-12-14T00:50:34;16.90;;;8.13;;
56927;SDS011;60850;52.502;13.426;2023-12-14T00:53:01;18.65;;;7.72;;
56927;SDS011;60850;52.502;13.426;2023-12-14T00:55:28;14.25;;;7.30;;
56927;SDS011;60850;52.502;13.426;2023-12-14T00:57:55;23.95;;;8.15;;
56927;SDS011;60850;52.502;13.426;2023-12-14T01:00:22;20.58;;;8.27;;
56927;SDS011;60850;52.502;13.426;2023-12-14T01:02:51;22.58;;;7.90;;
56927;SDS011;60850;52.502;13.426;2023-12-14T01:05:18;19.70;;;7.90;;
56927;SDS011;60850;52.502;13.426;2023-12-14T01:07:45;17.75;;;7.18;;
56927;SDS011;60850;52.502;13.426;2023-12-14T01:10:12;14.77;;;6.38;;
56927;SDS011;60850;52.502;13.426;2023-12-14T01:12:39;16.65;;;7.82;;
56927;SDS011;60850;52.502;13.426;2023-12-14T01:15:07;21.33;;;8.35;;
56927;SDS011;60850;52.502;13.426;2023-12-14T01:17:34;22.02;;;8.50;;
56927;SDS011;60850;52.502;13.426;2023-12-14T01:20:05;17.95;;;8.00;;
56927;SDS011;60850;52.502;13.426;2023-12-14T01:22:33;20.00;;;7.85;;
56927;SDS011;60850;52.502;13.426;2023-12-14T01:25:00;18.90;;;6.97;;
56927;SDS011;60850;52.502;13.426;2023-12-14T01:27:27;19.42;;;7.70;;
56927;SDS011;60850;52.502;13.426;2023-12-14T01:29:54;22.45;;;7.68;;
56927;SDS011;60850;52.502;13.426;2023-12-14T01:32:21;17.05;;;7.22;;
56927;SDS011;60850;52.502;13.426;2023-12-14T01:34:48;17.52;;;7.43;;
56927;SDS011;60850;52.502;13.426;2023-12-14T01:37:16;20.38;;;8.13;;
56927;SDS011;60850;52.502;13.426;2023-12-14T01:39:44;23.00;;;8.73;;
56927;SDS011;60850;52.502;13.426;2023-12-14T01:42:10;18.67;;;7.22;;
56927;SDS011;60850;52.502;13.426;2023-12-14T01:44:37;16.42;;;7.10;;
56927;SDS011;60850;52.502;13.426;2023-12-14T01:47:04;16.42;;;6.68;;
56927;SDS011;60850;52.502;13.426;2023-12-14T01:49:31;15.07;;;5.88;;
56927;SDS011;60850;52.502;13.426;2023-12-14T01:51:58;12.45;;;5.95;;
56927;SDS011;60850;52.502;13.426;2023-12-14T01:54:26;14.43;;;5.40;;
56927;SDS011;60850;52.502;13.426;2023-12-14T01:56:53;14.60;;;5.85;;
56927;SDS011;60850;52.502;13.426;2023-12-14T01:59:20;14.75;;;6.05;;
56927;SDS011;60850;52.502;13.426;2023-12-14T02:01:53;10.95;;;5.60;;
56927;SDS011;60850;52.502;13.426;2023-12-14T02:04:22;11.05;;;5.45;;
56927;SDS011;60850;52.502;13.426;2023-12-14T02:06:50;12.25;;;5.25;;
56927;SDS011;60850;52.502;13.426;2023-12-14T02:09:18;10.48;;;4.35;;
56927;SDS011;60850;52.502;13.426;2023-12-14T02:11:46;9.75;;;5.43;;
56927;SDS011;60850;52.502;13.426;2023-12-14T02:14:13;11.35;;;6.25;;
56927;SDS011;60850;52.502;13.426;2023-12-14T02:16:40;11.38;;;5.57;;
56927;SDS011;60850;52.502;13.426;2023-12-14T02:19:07;12.38;;;5.13;;
56927;SDS011;60850;52.502;13.426;2023-12-14T02:21:34;11.35;;;4.60;;
56927;SDS011;60850;52.502;13.426;2023-12-14T02:24:03;9.63;;;4.22;;
56927;SDS011;60850;52.502;13.426;2023-12-14T02:26:30;10.43;;;4.30;;
56927;SDS011;60850;52.502;13.426;2023-12-14T02:28:57;10.82;;;5.10;;
56927;SDS011;60850;52.502;13.426;2023-12-14T02:31:24;9.98;;;5.03;;
56927;SDS011;60850;52.502;13.426;2023-12-14T02:33:51;11.00;;;5.40;;
56927;SDS011;60850;52.502;13.426;2023-12-14T02:36:18;11.50;;;5.78;;
56927;SDS011;60850;52.502;13.426;2023-12-14T02:38:45;14.43;;;6.60;;
56927;SDS011;60850;52.502;13.426;2023-12-14T02:41:13;11.98;;;5.70;;
56927;SDS011;60850;52.502;13.426;2023-12-14T02:43:40;13.95;;;5.60;;
56927;SDS011;60850;52.502;13.426;2023-12-14T02:46:07;12.27;;;5.85;;
56927;SDS011;60850;52.502;13.426;2023-12-14T02:48:37;13.05;;;6.35;;
56927;SDS011;60850;52.502;13.426;2023-12-14T02:51:04;13.02;;;6.47;;
56927;SDS011;60850;52.502;13.426;2023-12-14T02:53:31;14.20;;;5.85;;
56927;SDS011;60850;52.502;13.426;2023-12-14T02:56:00;13.55;;;6.10;;
56927;SDS011;60850;52.502;13.426;2023-12-14T02:58:29;12.50;;;5.65;;
56927;SDS011;60850;52.502;13.426;2023-12-14T03:00:56;14.77;;;6.13;;
56927;SDS011;60850;52.502;13.426;2023-12-14T03:03:23;14.07;;;6.65;;
56927;SDS011;60850;52.502;13.426;2023-12-14T03:05:50;14.38;;;6.30;;
56927;SDS011;60850;52.502;13.426;2023-12-14T03:08:17;14.25;;;6.47;;
56927;SDS011;60850;52.502;13.426;2023-12-14T03:10:44;16.55;;;6.50;;
56927;SDS011;60850;52.502;13.426;2023-12-14T03:13:11;15.45;;;5.55;;
56927;SDS011;60850;52.502;13.426;2023-12-14T03:15:39;15.05;;;6.28;;
56927;SDS011;60850;52.502;13.426;2023-12-14T03:18:09;15.52;;;6.38;;
56927;SDS011;60850;52.502;13.426;2023-12-14T03:20:38;13.10;;;6.30;;
56927;SDS011;60850;52.502;13.426;2023-12-14T03:23:05;15.32;;;6.00;;
56927;SDS011;60850;52.502;13.426;2023-12-14T03:25:33;13.65;;;6.22;;
56927;SDS011;60850;52.502;13.426;2023-12-14T03:28:00;13.27;;;5.60;;
56927;SDS011;60850;52.502;13.426;2023-12-14T03:30:27;15.50;;;7.05;;
56927;SDS011;60850;52.502;13.426;2023-12-14T03:32:56;10.80;;;5.30;;
56927;SDS011;60850;52.502;13.426;2023-12-14T03:35:22;14.63;;;6.35;;
56927;SDS011;60850;52.502;13.426;2023-12-14T03:37:49;13.15;;;6.38;;
56927;SDS011;60850;52.502;13.426;2023-12-14T03:40:16;13.70;;;6.47;;
56927;SDS011;60850;52.502;13.426;2023-12-14T03:42:43;16.48;;;5.97;;
56927;SDS011;60850;52.502;13.426;2023-12-14T03:45:11;17.63;;;6.65;;
56927;SDS011;60850;52.502;13.426;2023-12-14T03:47:37;18.27;;;6.88;;
56927;SDS011;60850;52.502;13.426;2023-12-14T03:50:06;14.27;;;5.97;;
56927;SDS011;60850;52.502;13.426;2023-12-14T03:52:34;16.48;;;6.25;;
56927;SDS011;60850;52.502;13.426;2023-12-14T03:55:01;13.05;;;5.70;;
56927;SDS011;60850;52.502;13.426;2023-12-14T03:57:28;13.85;;;5.95;;
56927;SDS011;60850;52.502;13.426;2023-12-14T03:59:56;13.52;;;6.10;;
56927;SDS011;60850;52.502;13.426;2023-12-14T04:02:23;14.57;;;6.03;;
56927;SDS011;60850;52.502;13.426;2023-12-14T04:04:50;14.93;;;5.95;;
56927;SDS011;60850;52.502;13.426;2023-12-14T04:07:18;12.63;;;5.68;;
56927;SDS011;60850;52.502;13.426;2023-12-14T04:09:45;13.18;;;5.47;;
56927;SDS011;60850;52.502;13.426;2023-12-14T04:12:12;11.10;;;6.03;;
56927;SDS011;60850;52.502;13.426;2023-12-14T04:14:39;11.50;;;5.05;;
56927;SDS011;60850;52.502;13.426;2023-12-14T04:17:05;11.65;;;4.80;;
56927;SDS011;60850;52.502;13.426;2023-12-14T04:19:32;12.10;;;5.32;;
56927;SDS011;60850;52.502;13.426;2023-12-14T04:21:59;11.45;;;4.70;;
56927;SDS011;60850;52.502;13.426;2023-12-14T04:24:27;10.68;;;5.00;;
56927;SDS011;60850;52.502;13.426;2023-12-14T04:26:55;11.35;;;5.38;;
56927;SDS011;60850;52.502;13.426;2023-12-14T04:29:22;13.35;;;4.90;;
56927;SDS011;60850;52.502;13.426;2023-12-14T04:31:49;12.02;;;5.88;;
56927;SDS011;60850;52.502;13.426;2023-12-14T04:34:16;12.65;;;4.93;;
56927;SDS011;60850;52.502;13.426;2023-12-14T04:36:45;11.43;;;5.72;;
56927;SDS011;60850;52.502;13.426;2023-12-14T04:39:12;12.65;;;5.28;;
56927;SDS011;60850;52.502;13.426;2023-12-14T04:41:40;9.63;;;5.13;;
56927;SDS011;60850;52.502;13.426;2023-12-14T04:44:07;13.38;;;5.90;;
56927;SDS011;60850;52.502;13.426;2023-12-14T04:46:35;9.98;;;5.07;;
56927;SDS011;60850;52.502;13.426;2023-12-14T04:49:02;10.55;;;5.15;;
56927;SDS011;60850;52.502;13.426;2023-12-14T04:51:29;12.07;;;4.72;;
56927;SDS011;60850;52.502;13.426;2023-12-14T04:53:57;14.68;;;5.32;;
56927;SDS011;60850;52.502;13.426;2023-12-14T04:56:24;9.88;;;5.03;;
56927;SDS011;60850;52.502;13.426;2023-12-14T04:58:52;10.05;;;5.28;;
56927;SDS011;60850;52.502;13.426;2023-12-14T05:01:19;9.93;;;4.82;;
56927;SDS011;60850;52.502;13.426;2023-12-14T05:03:46;8.65;;;4.88;;
56927;SDS011;60850;52.502;13.426;2023-12-14T05:06:13;12.35;;;4.90;;
56927;SDS011;60850;52.502;13.426;2023-12-14T05:08:40;12.90;;;5.80;;
56927;SDS011;60850;52.502;13.426;2023-12-14T05:11:07;10.95;;;5.47;;
56927;SDS011;60850;52.502;13.426;2023-12-14T05:13:34;10.82;;;5.10;;
56927;SDS011;60850;52.502;13.426;2023-12-14T05:16:03;13.73;;;5.00;;
56927;SDS011;60850;52.502;13.426;2023-12-14T05:18:30;13.43;;;5.72;;
56927;SDS011;60850;52.502;13.426;2023-12-14T05:20:57;8.45;;;4.20;;
56927;SDS011;60850;52.502;13.426;2023-12-14T05:23:25;10.50;;;5.10;;
56927;SDS011;60850;52.502;13.426;2023-12-14T05:25:52;12.63;;;5.45;;
56927;SDS011;60850;52.502;13.426;2023-12-14T05:28:19;11.98;;;5.43;;
56927;SDS011;60850;52.502;13.426;2023-12-14T05:30:46;14.65;;;5.90;;
56927;SDS011;60850;52.502;13.426;2023-12-14T05:33:14;13.68;;;6.03;;
56927;SDS011;60850;52.502;13.426;2023-12-14T05:35:42;12.15;;;5.88;;
56927;SDS011;60850;52.502;13.426;2023-12-14T05:38:08;12.50;;;6.05;;
56927;SDS011;60850;52.502;13.426;2023-12-14T05:40:36;11.95;;;6.30;;
56927;SDS011;60850;52.502;13.426;2023-12-14T05:43:02;13.68;;;6.07;;
56927;SDS011;60850;52.502;13.426;2023-12-14T05:45:29;10.10;;;5.50;;
56927;SDS011;60850;52.502;13.426;2023-12-14T05:47:56;12.13;;;5.97;;
56927;SDS011;60850;52.502;13.426;2023-12-14T05:50:25;11.55;;;5.97;;
56927;SDS011;60850;52.502;13.426;2023-12-14T05:52:52;11.10;;;5.85;;
56927;SDS011;60850;52.502;13.426;2023-12-14T05:55:19;10.60;;;5.80;;
56927;SDS011;60850;52.502;13.426;2023-12-14T05:57:47;12.02;;;6.20;;
56927;SDS011;60850;52.502;13.426;2023-12-14T06:00:14;12.48;;;5.90;;
56927;SDS011;60850;52.502;13.426;2023-12-14T06:02:42;9.98;;;4.70;;
56927;SDS011;60850;52.502;13.426;2023-12-14T06:05:09;8.32;;;4.50;;
56927;SDS011;60850;52.502;13.426;2023-12-14T06:07:37;11.20;;;5.25;;
56927;SDS011;60850;52.502;13.426;2023-12-14T06:10:05;10.77;;;5.88;;
56927;SDS011;60850;52.502;13.426;2023-12-14T06:12:32;10.30;;;5.38;;
56927;SDS011;60850;52.502;13.426;2023-12-14T06:14:59;6.55;;;4.03;;
56927;SDS011;60850;52.502;13.426;2023-12-14T06:17:26;12.93;;;5.60;;
56927;SDS011;60850;52.502;13.426;2023-12-14T06:19:54;8.35;;;4.68;;
56927;SDS011;60850;52.502;13.426;2023-12-14T06:22:21;10.73;;;5.20;;
56927;SDS011;60850;52.502;13.426;2023-12-14T06:24:49;10.48;;;4.95;;
56927;SDS011;60850;52.502;13.426;2023-12-14T06:27:16;9.68;;;5.15;;
56927;SDS011;60850;52.502;13.426;2023-12-14T06:29:43;10.77;;;5.05;;
56927;SDS011;60850;52.502;13.426;2023-12-14T06:32:10;8.30;;;4.47;;
56927;SDS011;60850;52.502;13.426;2023-12-14T06:34:37;10.35;;;4.70;;
56927;SDS011;60850;52.502;13.426;2023-12-14T06:37:04;10.25;;;5.45;;
56927;SDS011;60850;52.502;13.426;2023-12-14T06:39:31;9.90;;;5.20;;
56927;SDS011;60850;52.502;13.426;2023-12-14T06:41:59;9.43;;;4.78;;
56927;SDS011;60850;52.502;13.426;2023-12-14T06:44:27;7.38;;;4.45;;
56927;SDS011;60850;52.502;13.426;2023-12-14T06:46:55;9.07;;;4.53;;
56927;SDS011;60850;52.502;13.426;2023-12-14T06:49:23;8.00;;;4.70;;
56927;SDS011;60850;52.502;13.426;2023-12-14T06:51:51;10.77;;;5.38;;
56927;SDS011;60850;52.502;13.426;2023-12-14T06:54:18;10.20;;;5.22;;
56927;SDS011;60850;52.502;13.426;2023-12-14T06:56:45;10.38;;;5.10;;
56927;SDS011;60850;52.502;13.426;2023-12-14T06:59:13;8.00;;;4.45;;
56927;SDS011;60850;52.502;13.426;2023-12-14T07:01:40;10.63;;;5.32;;
56927;SDS011;60850;52.502;13.426;2023-12-14T07:04:08;11.20;;;5.88;;
56927;SDS011;60850;52.502;13.426;2023-12-14T07:06:35;10.30;;;5.68;;
56927;SDS011;60850;52.502;13.426;2023-12-14T07:09:02;19.10;;;6.35;;
56927;SDS011;60850;52.502;13.426;2023-12-14T07:11:30;13.65;;;6.22;;
56927;SDS011;60850;52.502;13.426;2023-12-14T07:13:57;12.45;;;5.65;;
56927;SDS011;60850;52.502;13.426;2023-12-14T07:16:25;11.40;;;5.95;;
56927;SDS011;60850;52.502;13.426;2023-12-14T07:18:53;11.27;;;5.90;;
56927;SDS011;60850;52.502;13.426;2023-12-14T07:21:20;11.43;;;6.10;;
56927;SDS011;60850;52.502;13.426;2023-12-14T07:23:47;11.95;;;6.28;;
56927;SDS011;60850;52.502;13.426;2023-12-14T07:26:14;12.35;;;6.13;;
56927;SDS011;60850;52.502;13.426;2023-12-14T07:28:41;10.80;;;5.28;;
56927;SDS011;60850;52.502;13.426;2023-12-14T07:31:08;11.00;;;5.97;;
56927;SDS011;60850;52.502;13.426;2023-12-14T07:33:37;13.35;;;6.60;;
56927;SDS011;60850;52.502;13.426;2023-12-14T07:36:04;11.57;;;5.32;;
56927;SDS011;60850;52.502;13.426;2023-12-14T07:38:31;11.93;;;6.38;;
56927;SDS011;60850;52.502;13.426;2023-12-14T07:40:58;15.18;;;7.20;;
56927;SDS011;60850;52.502;13.426;2023-12-14T07:43:25;13.55;;;7.18;;
56927;SDS011;60850;52.502;13.426;2023-12-14T07:45:52;13.48;;;6.30;;
56927;SDS011;60850;52.502;13.426;2023-12-14T07:48:19;12.77;;;6.43;;
56927;SDS011;60850;52.502;13.426;2023-12-14T07:50:47;13.02;;;6.25;;
56927;SDS011;60850;52.502;13.426;2023-12-14T07:53:14;13.52;;;6.35;;
56927;SDS011;60850;52.502;13.426;2023-12-14T07:55:41;14.70;;;6.93;;
56927;SDS011;60850;52.502;13.426;2023-12-14T07:58:08;12.38;;;7.20;;
56927;SDS011;60850;52.502;13.426;2023-12-14T08:00:35;13.05;;;6.80;;
56927;SDS011;60850;52.502;13.426;2023-12-14T08:03:02;14.80;;;6.50;;
56927;SDS011;60850;52.502;13.426;2023-12-14T08:05:29;15.68;;;6.88;;
56927;SDS011;60850;52.502;13.426;2023-12-14T08:07:57;15.02;;;6.03;;
56927;SDS011;60850;52.502;13.426;2023-12-14T08:10:24;13.80;;;7.15;;
56927;SDS011;60850;52.502;13.426;2023-12-14T08:12:52;11.63;;;6.47;;
56927;SDS011;60850;52.502;13.426;2023-12-14T08:15:18;17.13;;;7.07;;
56927;SDS011;60850;52.502;13.426;2023-12-14T08:17:45;13.90;;;7.20;;
56927;SDS011;60850;52.502;13.426;2023-12-14T08:20:12;16.25;;;7.55;;
56927;SDS011;60850;52.502;13.426;2023-12-14T08:22:40;14.75;;;7.28;;
56927;SDS011;60850;52.502;13.426;2023-12-14T08:25:12;12.75;;;7.53;;
56927;SDS011;60850;52.502;13.426;2023-12-14T08:27:40;13.88;;;7.65;;
56927;SDS011;60850;52.502;13.426;2023-12-14T08:30:07;15.63;;;7.72;;
56927;SDS011;60850;52.502;13.426;2023-12-14T08:32:35;14.98;;;7.18;;
56927;SDS011;60850;52.502;13.426;2023-12-14T08:35:02;16.05;;;7.70;;
56927;SDS011;60850;52.502;13.426;2023-12-14T08:37:30;15.38;;;7.40;;
56927;SDS011;60850;52.502;13.426;2023-12-14T08:39:56;14.18;;;7.20;;
56927;SDS011;60850;52.502;13.426;2023-12-14T08:42:25;14.55;;;8.15;;
56927;SDS011;60850;52.502;13.426;2023-12-14T08:44:52;15.52;;;7.97;;
56927;SDS011;60850;52.502;13.426;2023-12-14T08:47:19;16.40;;;7.43;;
56927;SDS011;60850;52.502;13.426;2023-12-14T08:49:46;15.07;;;8.07;;
56927;SDS011;60850;52.502;13.426;2023-12-14T08:52:13;14.30;;;7.00;;
56927;SDS011;60850;52.502;13.426;2023-12-14T08:54:40;13.90;;;6.97;;
56927;SDS011;60850;52.502;13.426;2023-12-14T08:57:09;14.38;;;6.57;;
56927;SDS011;60850;52.502;13.426;2023-12-14T08:59:37;14.95;;;7.28;;
56927;SDS011;60850;52.502;13.426;2023-12-14T09:02:04;16.55;;;8.18;;
56927;SDS011;60850;52.502;13.426;2023-12-14T09:04:31;14.73;;;6.90;;
56927;SDS011;60850;52.502;13.426;2023-12-14T09:07:01;17.42;;;7.57;;
56927;SDS011;60850;52.502;13.426;2023-12-14T09:09:29;15.25;;;7.03;;
56927;SDS011;60850;52.502;13.426;2023-12-14T09:11:57;16.17;;;7.47;;
56927;SDS011;60850;52.502;13.426;2023-12-14T09:14:24;15.75;;;8.23;;
56927;SDS011;60850;52.502;13.426;2023-12-14T09:16:53;15.68;;;8.23;;
56927;SDS011;60850;52.502;13.426;2023-12-14T09:19:20;15.68;;;7.10;;
56927;SDS011;60850;52.502;13.426;2023-12-14T09:21:47;18.30;;;8.07;;
56927;SDS011;60850;52.502;13.426;2023-12-14T09:24:14;15.90;;;6.90;;
56927;SDS011;60850;52.502;13.426;2023-12-14T09:26:41;16.25;;;7.75;;
56927;SDS011;60850;52.502;13.426;2023-12-14T09:29:08;12.52;;;6.85;;
56927;SDS011;60850;52.502;13.426;2023-12-14T09:31:35;12.30;;;6.47;;
56927;SDS011;60850;52.502;13.426;2023-12-14T09:34:03;13.55;;;7.25;;
56927;SDS011;60850;52.502;13.426;2023-12-14T09:36:31;16.95;;;7.43;;
56927;SDS011;60850;52.502;13.426;2023-12-14T09:38:57;14.55;;;8.15;;
56927;SDS011;60850;52.502;13.426;2023-12-14T09:41:24;14.32;;;7.63;;
56927;SDS011;60850;52.502;13.426;2023-12-14T09:43:51;14.95;;;7.72;;
56927;SDS011;60850;52.502;13.426;2023-12-14T09:46:19;14.05;;;7.75;;
56927;SDS011;60850;52.502;13.426;2023-12-14T09:48:48;15.32;;;7.85;;
56927;SDS011;60850;52.502;13.426;2023-12-14T09:51:18;17.08;;;8.05;;
56927;SDS011;60850;52.502;13.426;2023-12-14T09:53:45;16.48;;;7.72;;
56927;SDS011;60850;52.502;13.426;2023-12-14T09:56:12;14.10;;;7.07;;
56927;SDS011;60850;52.502;13.426;2023-12-14T09:58:39;11.73;;;6.10;;
56927;SDS011;60850;52.502;13.426;2023-12-14T10:01:20;17.67;;;7.10;;
56927;SDS011;60850;52.502;13.426;2023-12-14T10:03:49;12.77;;;7.15;;
56927;SDS011;60850;52.502;13.426;2023-12-14T10:06:18;12.70;;;6.45;;
56927;SDS011;60850;52.502;13.426;2023-12-14T10:08:53;13.10;;;6.75;;
56927;SDS011;60850;52.502;13.426;2023-12-14T10:11:21;11.68;;;6.47;;
56927;SDS011;60850;52.502;13.426;2023-12-14T10:13:48;11.65;;;6.13;;
56927;SDS011;60850;52.502;13.426;2023-12-14T10:16:26;13.98;;;7.03;;
56927;SDS011;60850;52.502;13.426;2023-12-14T10:18:55;13.70;;;6.32;;
56927;SDS011;60850;52.502;13.426;2023-12-14T10:21:23;14.20;;;6.57;;
56927;SDS011;60850;52.502;13.426;2023-12-14T10:23:51;11.55;;;5.55;;
56927;SDS011;60850;52.502;13.426;2023-12-14T10:26:18;14.27;;;6.15;;
56927;SDS011;60850;52.502;13.426;2023-12-14T10:28:45;11.30;;;6.45;;
56927;SDS011;60850;52.502;13.426;2023-12-14T10:31:12;13.38;;;6.22;;
56927;SDS011;60850;52.502;13.426;2023-12-14T10:33:40;15.55;;;6.53;;
56927;SDS011;60850;52.502;13.426;2023-12-14T10:36:08;14.35;;;6.57;;
56927;SDS011;60850;52.502;13.426;2023-12-14T10:38:37;12.95;;;6.55;;
56927;SDS011;60850;52.502;13.426;2023-12-14T10:41:05;13.98;;;6.63;;
56927;SDS011;60850;52.502;13.426;2023-12-14T10:43:34;14.68;;;7.07;;
56927;SDS011;60850;52.502;13.426;2023-12-14T10:46:04;15.35;;;7.38;;
56927;SDS011;60850;52.502;13.426;2023-12-14T10:48:34;15.45;;;7.53;;
56927;SDS011;60850;52.502;13.426;2023-12-14T10:51:02;14.02;;;6.68;;
56927;SDS011;60850;52.502;13.426;2023-12-14T10:53:30;15.32;;;7.68;;
56927;SDS011;60850;52.502;13.426;2023-12-14T10:56:00;14.55;;;6.75;;
56927;SDS011;60850;52.502;13.426;2023-12-14T10:58:44;16.67;;;7.82;;
56927;SDS011;60850;52.502;13.426;2023-12-14T11:01:13;13.73;;;7.32;;
56927;SDS011;60850;52.502;13.426;2023-12-14T11:03:42;15.88;;;7.88;;
56927;SDS011;60850;52.502;13.426;2023-12-14T11:06:20;15.85;;;7.88;;
56927;SDS011;60850;52.502;13.426;2023-12-14T11:08:48;15.27;;;7.80;;
56927;SDS011;60850;52.502;13.426;2023-12-14T11:11:16;17.42;;;7.18;;
56927;SDS011;60850;52.502;13.426;2023-12-14T11:13:46;17.77;;;8.10;;
56927;SDS011;60850;52.502;13.426;2023-12-14T11:16:15;16.08;;;7.85;;
56927;SDS011;60850;52.502;13.426;2023-12-14T11:18:42;14.30;;;7.57;;
56927;SDS011;60850;52.502;13.426;2023-12-14T11:21:09;14.02;;;6.75;;
56927;SDS011;60850;52.502;13.426;2023-12-14T11:23:45;16.92;;;7.72;;
56927;SDS011;60850;52.502;13.426;2023-12-14T11:26:15;13.48;;;6.63;;
56927;SDS011;60850;52.502;13.426;2023-12-14T11:28:53;17.27;;;7.93;;
56927;SDS011;60850;52.502;13.426;2023-12-14T11:31:21;18.15;;;7.95;;
56927;SDS011;60850;52.502;13.426;2023-12-14T11:33:48;17.45;;;7.60;;
56927;SDS011;60850;52.502;13.426;2023-12-14T11:36:15;16.50;;;8.43;;
56927;SDS011;60850;52.502;13.426;2023-12-14T11:38:42;15.05;;;8.38;;
56927;SDS011;60850;52.502;13.426;2023-12-14T11:41:10;15.55;;;7.57;;
56927;SDS011;60850;52.502;13.426;2023-12-14T11:43:42;15.15;;;8.15;;
56927;SDS011;60850;52.502;13.426;2023-12-14T11:46:10;18.63;;;7.93;;
56927;SDS011;60850;52.502;13.426;2023-12-14T11:48:37;15.68;;;6.95;;
56927;SDS011;60850;52.502;13.426;2023-12-14T11:51:04;16.52;;;8.07;;
56927;SDS011;60850;52.502;13.426;2023-12-14T11:53:31;15.95;;;7.38;;
56927;SDS011;60850;52.502;13.426;2023-12-14T11:55:59;14.27;;;7.22;;
56927;SDS011;60850;52.502;13.426;2023-12-14T11:58:27;15.77;;;8.07;;
56927;SDS011;60850;52.502;13.426;2023-12-14T12:00:56;16.13;;;7.72;;
56927;SDS011;60850;52.502;13.426;2023-12-14T12:03:36;14.43;;;7.28;;
56927;SDS011;60850;52.502;13.426;2023-12-14T12:06:06;14.43;;;7.00;;
56927;SDS011;60850;52.502;13.426;2023-12-14T12:08:33;14.00;;;7.82;;
56927;SDS011;60850;52.502;13.426;2023-12-14T12:11:07;18.35;;;8.35;;
56927;SDS011;60850;52.502;13.426;2023-12-14T12:13:34;13.75;;;7.22;;
56927;SDS011;60850;52.502;13.426;2023-12-14T12:16:03;17.77;;;8.02;;
56927;SDS011;60850;52.502;13.426;2023-12-14T12:18:30;13.25;;;7.05;;
56927;SDS011;60850;52.502;13.426;2023-12-14T12:20:57;18.92;;;8.10;;
56927;SDS011;60850;52.502;13.426;2023-12-14T12:23:29;17.27;;;8.38;;
56927;SDS011;60850;52.502;13.426;2023-12-14T12:25:56;15.15;;;7.35;;
56927;SDS011;60850;52.502;13.426;2023-12-14T12:28:23;14.88;;;7.35;;
56927;SDS011;60850;52.502;13.426;2023-12-14T12:30:50;17.40;;;7.80;;
56927;SDS011;60850;52.502;13.426;2023-12-14T12:33:18;17.48;;;7.72;;
56927;SDS011;60850;52.502;13.426;2023-12-14T12:35:46;17.73;;;8.65;;
56927;SDS011;60850;52.502;13.426;2023-12-14T12:38:12;18.17;;;8.63;;
56927;SDS011;60850;52.502;13.426;2023-12-14T12:40:41;19.55;;;8.25;;
56927;SDS011;60850;52.502;13.426;2023-12-14T12:43:08;17.08;;;8.77;;
56927;SDS011;60850;52.502;13.426;2023-12-14T12:45:36;14.93;;;7.55;;
56927;SDS011;60850;52.502;13.426;2023-12-14T12:48:03;13.52;;;7.70;;
56927;SDS011;60850;52.502;13.426;2023-12-14T12:50:34;14.35;;;7.65;;
56927;SDS011;60850;52.502;13.426;2023-12-14T12:53:01;19.40;;;7.43;;
56927;SDS011;60850;52.502;13.426;2023-12-14T12:55:28;18.05;;;8.02;;
56927;SDS011;60850;52.502;13.426;2023-12-14T12:57:55;15.20;;;7.82;;
56927;SDS011;60850;52.502;13.426;2023-12-14T13:00:23;12.43;;;6.85;;
56927;SDS011;60850;52.502;13.426;2023-12-14T13:02:51;13.23;;;6.72;;
56927;SDS011;60850;52.502;13.426;2023-12-14T13:05:18;14.63;;;6.88;;
56927;SDS011;60850;52.502;13.426;2023-12-14T13:07:47;15.73;;;7.47;;
56927;SDS011;60850;52.502;13.426;2023-12-14T13:10:15;12.90;;;6.97;;
56927;SDS011;60850;52.502;13.426;2023-12-14T13:12:44;14.93;;;6.93;;
56927;SDS011;60850;52.502;13.426;2023-12-14T13:15:11;13.75;;;7.35;;
56927;SDS011;60850;52.502;13.426;2023-12-14T13:17:38;20.08;;;7.78;;
56927;SDS011;60850;52.502;13.426;2023-12-14T13:20:06;15.65;;;6.93;;
56927;SDS011;60850;52.502;13.426;2023-12-14T13:22:34;14.85;;;6.95;;
56927;SDS011;60850;52.502;13.426;2023-12-14T13:25:02;15.98;;;8.13;;
56927;SDS011;60850;52.502;13.426;2023-12-14T13:27:30;15.13;;;7.20;;
56927;SDS011;60850;52.502;13.426;2023-12-14T13:29:57;16.23;;;8.15;;
56927;SDS011;60850;52.502;13.426;2023-12-14T13:32:24;15.50;;;7.97;;
56927;SDS011;60850;52.502;13.426;2023-12-14T13:34:51;14.23;;;7.93;;
56927;SDS011;60850;52.502;13.426;2023-12-14T13:37:19;17.80;;;9.90;;
56927;SDS011;60850;52.502;13.426;2023-12-14T13:39:46;13.85;;;8.40;;
56927;SDS011;60850;52.502;13.426;2023-12-14T13:42:15;16.05;;;8.35;;
56927;SDS011;60850;52.502;13.426;2023-12-14T13:44:42;15.77;;;8.20;;
56927;SDS011;60850;52.502;13.426;2023-12-14T13:47:09;16.58;;;7.75;;
56927;SDS011;60850;52.502;13.426;2023-12-14T13:49:36;16.40;;;8.48;;
56927;SDS011;60850;52.502;13.426;2023-12-14T13:52:03;16.05;;;8.55;;
56927;SDS011;60850;52.502;13.426;2023-12-14T13:54:30;15.43;;;8.25;;
56927;SDS011;60850;52.502;13.426;2023-12-14T13:57:00;14.48;;;7.93;;
56927;SDS011;60850;52.502;13.426;2023-12-14T13:59:31;17.70;;;8.43;;
56927;SDS011;60850;52.502;13.426;2023-12-14T14:01:59;16.92;;;8.07;;
56927;SDS011;60850;52.502;13.426;2023-12-14T14:04:26;16.27;;;8.55;;
56927;SDS011;60850;52.502;13.426;2023-12-14T14:06:53;17.00;;;8.25;;
56927;SDS011;60850;52.502;13.426;2023-12-14T14:09:20;16.83;;;8.15;;
56927;SDS011;60850;52.502;13.426;2023-12-14T14:11:46;16.73;;;7.93;;
56927;SDS011;60850;52.502;13.426;2023-12-14T14:14:14;14.93;;;6.47;;
56927;SDS011;60850;52.502;13.426;2023-12-14T14:16:43;15.85;;;7.80;;
56927;SDS011;60850;52.502;13.426;2023-12-14T14:19:14;14.40;;;7.10;;
56927;SDS011;60850;52.502;13.426;2023-12-14T14:21:41;19.20;;;8.50;;
56927;SDS011;60850;52.502;13.426;2023-12-14T14:24:09;16.27;;;7.97;;
56927;SDS011;60850;52.502;13.426;2023-12-14T14:26:36;16.45;;;7.45;;